Richburg, New York
Current Conditions -  °F | °C
As of 9:56 PM on Monday 20 Oct 2014 (Local Time) from KELZ Reporting Station
Light Rain Light Rain  
Wind Chill: 45°   Ceiling: 5500
Heat Index: 48°   Visibility: 10mi
Dew Point: 40°   Wind: 7mph
Humidity: 74%   Direction: NA
Pressure: 29.87"   Gusts: NA
Location:  42.09°N, 78.15°W
Report Text: KELZ 210156Z AUTO VRB06KT 10SM -RA OVC055 09/04 A2987 RMK AO2 RAE0059B49 SLP124 P0000 T00890044
Loading
Personal Weather Stations






























Interactive Weather Map
Tropical Storm Tracking
New forecast layout! Learn more

10-Day Weather Forecast

Advertisements
Track Severe Weather on mobile